Aérodrome :
LOGIN :

S'inscrire | Disclaimer

   EN    FR    IT 

 










Légende :    VFR   VFR Marginal   IFR   IFR Intensif   IFR Très Intensif
Visi : 
Plafond : 
>= 8 km
>= 3000ft
5 à 8 km
1000 à 3000 ft
1500m à 5 km
500 à 1000 ft
800 à 1500m
200 à 500 ft
< 800m
< 200 ft
Symboles :   Orages  Brouillard  Fortes neiges  Fortes précipitations  Vent > 20 kt
SIGMETs :   Divers  Orages  Givrage  Turbulence  Onde Orograph.  Cendres Volcan.






- Altitude de l'aérodrome : 1411 ft
- Code IATA : ZHI


LSZG - Grenchen

DERNIER METAR :
  • 121050Z 23011KT 9999 FEW035 07/02 Q1008 NOSIG

METARs EXPIRÉS :
  • 121020Z 23007KT 9999 FEW035 07/03 Q1009 NOSIG
  • 120950Z 22008KT 9999 FEW035 06/03 Q1009 NOSIG
  • 120920Z 24003KT 9999 FEW035 05/03 Q1009 NOSIG
  • 120850Z 26003KT 9999 FEW035 04/03 Q1009 NOSIG
  • 120820Z VRB01KT 9999 FEW035 02/02 Q1010 NOSIG

TAF TAF LSZG
Valide du 12 à 09h jusqu'au 12 à 18h UTC


120825Z 1209/1218 17002KT CAVOK
BECMG 1212/1215 9999 SCT040
ATIS : +41 32 396 96 33



MET'MAP, la Météo Aéronautique d'un coup d'oeil ! - Copyright ORBIFLY Décembre 2007 - Disclaimer

ORBIFLY MET'MAP TEAM :

Programmation & Développement : Alexandra Zaïnal
Conception & Développement : Baudouin d'Aumeries
Co-Programmation & Développement : Marc-Olivier Méhu
Soutien technique & logistique : Manuel Goepfert

Contact : metmap@orbifly.com




SOURCES & CREDITS :

   NOAA